sensor_id;sensor_type;location;lat;lon;timestamp;temperature;humidity
78731;SHT31;68055;51.978;5.658;2023-06-14T00:01:19;23.0;33.2
78731;SHT31;68055;51.978;5.658;2023-06-14T00:03:49;22.9;33.3
78731;SHT31;68055;51.978;5.658;2023-06-14T00:06:19;22.9;33.4
78731;SHT31;68055;51.978;5.658;2023-06-14T00:08:51;22.8;33.5
78731;SHT31;68055;51.978;5.658;2023-06-14T00:11:23;22.8;33.6
78731;SHT31;68055;51.978;5.658;2023-06-14T00:13:54;22.8;33.7
78731;SHT31;68055;51.978;5.658;2023-06-14T00:16:23;22.7;33.7
78731;SHT31;68055;51.978;5.658;2023-06-14T00:18:53;22.7;34.0
78731;SHT31;68055;51.978;5.658;2023-06-14T00:21:22;22.6;34.0
78731;SHT31;68055;51.978;5.658;2023-06-14T00:23:52;22.6;34.0
78731;SHT31;68055;51.978;5.658;2023-06-14T00:26:22;22.6;34.0
78731;SHT31;68055;51.978;5.658;2023-06-14T00:28:53;22.5;34.1
78731;SHT31;68055;51.978;5.658;2023-06-14T00:31:24;22.5;34.2
78731;SHT31;68055;51.978;5.658;2023-06-14T00:33:53;22.5;34.4
78731;SHT31;68055;51.978;5.658;2023-06-14T00:36:23;22.4;34.5
78731;SHT31;68055;51.978;5.658;2023-06-14T00:38:52;22.4;34.5
78731;SHT31;68055;51.978;5.658;2023-06-14T00:41:22;22.4;34.5
78731;SHT31;68055;51.978;5.658;2023-06-14T00:43:52;22.4;34.6
78731;SHT31;68055;51.978;5.658;2023-06-14T00:46:24;22.3;34.7
78731;SHT31;68055;51.978;5.658;2023-06-14T00:48:55;22.3;34.8
78731;SHT31;68055;51.978;5.658;2023-06-14T00:51:25;22.3;35.0
78731;SHT31;68055;51.978;5.658;2023-06-14T00:53:55;22.3;35.1
78731;SHT31;68055;51.978;5.658;2023-06-14T00:56:25;22.2;35.1
78731;SHT31;68055;51.978;5.658;2023-06-14T00:58:56;22.2;35.1
78731;SHT31;68055;51.978;5.658;2023-06-14T01:01:25;22.1;35.2
78731;SHT31;68055;51.978;5.658;2023-06-14T01:03:56;22.1;35.3
78731;SHT31;68055;51.978;5.658;2023-06-14T01:06:33;22.1;35.4
78731;SHT31;68055;51.978;5.658;2023-06-14T01:09:17;22.0;35.3
78731;SHT31;68055;51.978;5.658;2023-06-14T01:11:58;22.0;35.4
78731;SHT31;68055;51.978;5.658;2023-06-14T01:14:32;22.0;35.4
78731;SHT31;68055;51.978;5.658;2023-06-14T01:17:04;21.9;35.5
78731;SHT31;68055;51.978;5.658;2023-06-14T01:19:35;21.9;35.7
78731;SHT31;68055;51.978;5.658;2023-06-14T01:22:05;21.9;35.7
78731;SHT31;68055;51.978;5.658;2023-06-14T01:24:35;21.8;35.9
78731;SHT31;68055;51.978;5.658;2023-06-14T01:27:07;21.8;35.9
78731;SHT31;68055;51.978;5.658;2023-06-14T01:29:38;21.8;36.0
78731;SHT31;68055;51.978;5.658;2023-06-14T01:32:13;21.7;35.9
78731;SHT31;68055;51.978;5.658;2023-06-14T01:34:45;21.7;36.0
78731;SHT31;68055;51.978;5.658;2023-06-14T01:37:15;21.7;36.1
78731;SHT31;68055;51.978;5.658;2023-06-14T01:39:46;21.7;36.3
78731;SHT31;68055;51.978;5.658;2023-06-14T01:42:18;21.6;36.0
78731;SHT31;68055;51.978;5.658;2023-06-14T01:44:48;21.6;36.2
78731;SHT31;68055;51.978;5.658;2023-06-14T01:47:20;21.6;36.2
78731;SHT31;68055;51.978;5.658;2023-06-14T01:49:50;21.6;36.4
78731;SHT31;68055;51.978;5.658;2023-06-14T01:52:20;21.5;36.3
78731;SHT31;68055;51.978;5.658;2023-06-14T01:54:51;21.5;36.5
78731;SHT31;68055;51.978;5.658;2023-06-14T01:57:22;21.5;36.5
78731;SHT31;68055;51.978;5.658;2023-06-14T01:59:51;21.5;36.5
78731;SHT31;68055;51.978;5.658;2023-06-14T02:02:21;21.5;36.9
78731;SHT31;68055;51.978;5.658;2023-06-14T02:04:51;21.4;36.8
78731;SHT31;68055;51.978;5.658;2023-06-14T02:07:24;21.4;36.6
78731;SHT31;68055;51.978;5.658;2023-06-14T02:09:54;21.4;36.7
78731;SHT31;68055;51.978;5.658;2023-06-14T02:12:23;21.4;37.0
78731;SHT31;68055;51.978;5.658;2023-06-14T02:14:53;21.4;36.9
78731;SHT31;68055;51.978;5.658;2023-06-14T02:17:24;21.3;37.0
78731;SHT31;68055;51.978;5.658;2023-06-14T02:19:54;21.3;36.9
78731;SHT31;68055;51.978;5.658;2023-06-14T02:22:24;21.3;36.8
78731;SHT31;68055;51.978;5.658;2023-06-14T02:24:54;21.2;37.1
78731;SHT31;68055;51.978;5.658;2023-06-14T02:27:23;21.2;37.0
78731;SHT31;68055;51.978;5.658;2023-06-14T02:29:53;21.2;37.1
78731;SHT31;68055;51.978;5.658;2023-06-14T02:32:24;21.2;37.2
78731;SHT31;68055;51.978;5.658;2023-06-14T02:34:54;21.1;37.3
78731;SHT31;68055;51.978;5.658;2023-06-14T02:37:24;21.1;37.6
78731;SHT31;68055;51.978;5.658;2023-06-14T02:39:54;21.1;37.3
78731;SHT31;68055;51.978;5.658;2023-06-14T02:42:23;21.0;37.6
78731;SHT31;68055;51.978;5.658;2023-06-14T02:44:53;21.0;37.5
78731;SHT31;68055;51.978;5.658;2023-06-14T02:47:23;21.0;37.7
78731;SHT31;68055;51.978;5.658;2023-06-14T02:49:53;21.0;37.8
78731;SHT31;68055;51.978;5.658;2023-06-14T02:52:22;20.9;37.7
78731;SHT31;68055;51.978;5.658;2023-06-14T02:54:52;20.9;38.1
78731;SHT31;68055;51.978;5.658;2023-06-14T02:57:22;20.9;37.9
78731;SHT31;68055;51.978;5.658;2023-06-14T02:59:52;20.9;38.4
78731;SHT31;68055;51.978;5.658;2023-06-14T03:02:24;20.8;38.2
78731;SHT31;68055;51.978;5.658;2023-06-14T03:04:53;20.8;38.3
78731;SHT31;68055;51.978;5.658;2023-06-14T03:07:26;20.8;38.4
78731;SHT31;68055;51.978;5.658;2023-06-14T03:09:59;20.8;38.6
78731;SHT31;68055;51.978;5.658;2023-06-14T03:12:28;20.7;38.2
78731;SHT31;68055;51.978;5.658;2023-06-14T03:14:58;20.7;38.2
78731;SHT31;68055;51.978;5.658;2023-06-14T03:17:29;20.7;38.6
78731;SHT31;68055;51.978;5.658;2023-06-14T03:20:01;20.6;38.5
78731;SHT31;68055;51.978;5.658;2023-06-14T03:22:33;20.6;38.8
78731;SHT31;68055;51.978;5.658;2023-06-14T03:25:03;20.5;38.8
78731;SHT31;68055;51.978;5.658;2023-06-14T03:27:33;20.5;39.2
78731;SHT31;68055;51.978;5.658;2023-06-14T03:30:03;20.5;39.0
78731;SHT31;68055;51.978;5.658;2023-06-14T03:32:33;20.5;39.5
78731;SHT31;68055;51.978;5.658;2023-06-14T03:35:03;20.5;39.0
78731;SHT31;68055;51.978;5.658;2023-06-14T03:37:32;20.4;39.1
78731;SHT31;68055;51.978;5.658;2023-06-14T03:40:02;20.4;39.2
78731;SHT31;68055;51.978;5.658;2023-06-14T03:42:34;20.4;39.5
78731;SHT31;68055;51.978;5.658;2023-06-14T03:45:05;20.4;39.5
78731;SHT31;68055;51.978;5.658;2023-06-14T03:47:35;20.3;39.8
78731;SHT31;68055;51.978;5.658;2023-06-14T03:50:06;20.3;39.9
78731;SHT31;68055;51.978;5.658;2023-06-14T03:52:35;20.3;40.1
78731;SHT31;68055;51.978;5.658;2023-06-14T03:55:05;20.3;40.0
78731;SHT31;68055;51.978;5.658;2023-06-14T03:57:35;20.3;40.0
78731;SHT31;68055;51.978;5.658;2023-06-14T04:00:05;20.2;40.3
78731;SHT31;68055;51.978;5.658;2023-06-14T04:02:36;20.2;40.1
78731;SHT31;68055;51.978;5.658;2023-06-14T04:05:06;20.2;40.2
78731;SHT31;68055;51.978;5.658;2023-06-14T04:07:36;20.2;40.5
78731;SHT31;68055;51.978;5.658;2023-06-14T04:10:12;20.2;40.6
78731;SHT31;68055;51.978;5.658;2023-06-14T04:12:42;20.2;40.0
78731;SHT31;68055;51.978;5.658;2023-06-14T04:15:12;20.2;40.1
78731;SHT31;68055;51.978;5.658;2023-06-14T04:17:41;20.2;40.8
78731;SHT31;68055;51.978;5.658;2023-06-14T04:20:11;20.2;40.2
78731;SHT31;68055;51.978;5.658;2023-06-14T04:22:41;20.2;40.1
78731;SHT31;68055;51.978;5.658;2023-06-14T04:25:10;20.2;40.3
78731;SHT31;68055;51.978;5.658;2023-06-14T04:27:43;20.2;40.8
78731;SHT31;68055;51.978;5.658;2023-06-14T04:30:16;20.2;40.4
78731;SHT31;68055;51.978;5.658;2023-06-14T04:32:48;20.2;41.1
78731;SHT31;68055;51.978;5.658;2023-06-14T04:35:21;20.2;41.0
78731;SHT31;68055;51.978;5.658;2023-06-14T04:37:51;20.1;40.8
78731;SHT31;68055;51.978;5.658;2023-06-14T04:40:21;20.1;40.9
78731;SHT31;68055;51.978;5.658;2023-06-14T04:42:50;20.1;41.5
78731;SHT31;68055;51.978;5.658;2023-06-14T04:45:22;20.1;41.0
78731;SHT31;68055;51.978;5.658;2023-06-14T04:47:51;20.1;41.2
78731;SHT31;68055;51.978;5.658;2023-06-14T04:50:24;20.1;41.3
78731;SHT31;68055;51.978;5.658;2023-06-14T04:52:54;20.1;41.5
78731;SHT31;68055;51.978;5.658;2023-06-14T04:55:24;20.1;41.2
78731;SHT31;68055;51.978;5.658;2023-06-14T04:57:54;20.1;41.4
78731;SHT31;68055;51.978;5.658;2023-06-14T05:00:25;20.1;41.4
78731;SHT31;68055;51.978;5.658;2023-06-14T05:02:54;20.1;41.5
78731;SHT31;68055;51.978;5.658;2023-06-14T05:05:24;20.1;41.5
78731;SHT31;68055;51.978;5.658;2023-06-14T05:07:56;20.1;41.5
78731;SHT31;68055;51.978;5.658;2023-06-14T05:10:26;20.1;41.5
78731;SHT31;68055;51.978;5.658;2023-06-14T05:12:56;20.1;41.5
78731;SHT31;68055;51.978;5.658;2023-06-14T05:15:25;20.1;41.5
78731;SHT31;68055;51.978;5.658;2023-06-14T05:17:56;20.2;41.7
78731;SHT31;68055;51.978;5.658;2023-06-14T05:20:27;20.2;41.5
78731;SHT31;68055;51.978;5.658;2023-06-14T05:22:57;20.2;41.5
78731;SHT31;68055;51.978;5.658;2023-06-14T05:25:27;20.2;41.5
78731;SHT31;68055;51.978;5.658;2023-06-14T05:27:57;20.2;41.4
78731;SHT31;68055;51.978;5.658;2023-06-14T05:30:28;20.3;42.1
78731;SHT31;68055;51.978;5.658;2023-06-14T05:33:00;20.3;41.7
78731;SHT31;68055;51.978;5.658;2023-06-14T05:35:30;20.3;41.5
78731;SHT31;68055;51.978;5.658;2023-06-14T05:37:59;20.4;41.7
78731;SHT31;68055;51.978;5.658;2023-06-14T05:40:29;20.4;41.7
78731;SHT31;68055;51.978;5.658;2023-06-14T05:42:58;20.4;41.7
78731;SHT31;68055;51.978;5.658;2023-06-14T05:45:30;20.5;41.7
78731;SHT31;68055;51.978;5.658;2023-06-14T05:48:00;20.6;41.4
78731;SHT31;68055;51.978;5.658;2023-06-14T05:50:30;20.6;41.8
78731;SHT31;68055;51.978;5.658;2023-06-14T05:52:59;20.7;41.5
78731;SHT31;68055;51.978;5.658;2023-06-14T05:55:29;20.8;41.6
78731;SHT31;68055;51.978;5.658;2023-06-14T05:57:59;21.0;41.5
78731;SHT31;68055;51.978;5.658;2023-06-14T06:00:28;21.1;40.8
78731;SHT31;68055;51.978;5.658;2023-06-14T06:02:58;21.3;40.8
78731;SHT31;68055;51.978;5.658;2023-06-14T06:05:28;21.5;40.6
78731;SHT31;68055;51.978;5.658;2023-06-14T06:07:57;21.7;40.2
78731;SHT31;68055;51.978;5.658;2023-06-14T06:10:27;21.9;40.2
78731;SHT31;68055;51.978;5.658;2023-06-14T06:12:57;22.2;39.8
78731;SHT31;68055;51.978;5.658;2023-06-14T06:15:26;22.4;39.0
78731;SHT31;68055;51.978;5.658;2023-06-14T06:17:56;22.6;38.0
78731;SHT31;68055;51.978;5.658;2023-06-14T06:20:25;22.8;37.5
78731;SHT31;68055;51.978;5.658;2023-06-14T06:22:57;23.0;36.6
78731;SHT31;68055;51.978;5.658;2023-06-14T06:25:28;23.2;36.4
78731;SHT31;68055;51.978;5.658;2023-06-14T06:27:59;23.4;36.4
78731;SHT31;68055;51.978;5.658;2023-06-14T06:30:30;23.5;37.1
78731;SHT31;68055;51.978;5.658;2023-06-14T06:33:00;23.7;36.3
78731;SHT31;68055;51.978;5.658;2023-06-14T06:35:30;23.8;36.2
78731;SHT31;68055;51.978;5.658;2023-06-14T06:38:00;24.1;36.0
78731;SHT31;68055;51.978;5.658;2023-06-14T06:40:30;24.3;35.6
78731;SHT31;68055;51.978;5.658;2023-06-14T06:42:59;24.4;34.9
78731;SHT31;68055;51.978;5.658;2023-06-14T06:45:30;24.6;34.8
78731;SHT31;68055;51.978;5.658;2023-06-14T06:48:00;24.8;34.2
78731;SHT31;68055;51.978;5.658;2023-06-14T06:50:29;24.9;34.1
78731;SHT31;68055;51.978;5.658;2023-06-14T06:53:00;25.0;33.9
78731;SHT31;68055;51.978;5.658;2023-06-14T06:55:29;25.2;34.8
78731;SHT31;68055;51.978;5.658;2023-06-14T06:57:59;25.3;33.9
78731;SHT31;68055;51.978;5.658;2023-06-14T07:00:32;25.5;33.3
78731;SHT31;68055;51.978;5.658;2023-06-14T07:03:01;25.6;33.1
78731;SHT31;68055;51.978;5.658;2023-06-14T07:05:31;25.8;33.5
78731;SHT31;68055;51.978;5.658;2023-06-14T07:08:00;25.9;33.1
78731;SHT31;68055;51.978;5.658;2023-06-14T07:10:30;26.1;32.6
78731;SHT31;68055;51.978;5.658;2023-06-14T07:13:00;26.3;33.0
78731;SHT31;68055;51.978;5.658;2023-06-14T07:15:29;26.5;31.7
78731;SHT31;68055;51.978;5.658;2023-06-14T07:17:58;26.6;31.7
78731;SHT31;68055;51.978;5.658;2023-06-14T07:20:28;26.8;31.0
78731;SHT31;68055;51.978;5.658;2023-06-14T07:23:00;27.1;31.0
78731;SHT31;68055;51.978;5.658;2023-06-14T07:25:29;27.3;30.9
78731;SHT31;68055;51.978;5.658;2023-06-14T07:27:59;27.5;30.1
78731;SHT31;68055;51.978;5.658;2023-06-14T07:30:28;27.7;30.2
78731;SHT31;68055;51.978;5.658;2023-06-14T07:32:58;27.9;29.9
78731;SHT31;68055;51.978;5.658;2023-06-14T07:35:28;28.1;29.5
78731;SHT31;68055;51.978;5.658;2023-06-14T07:37:57;28.2;29.0
78731;SHT31;68055;51.978;5.658;2023-06-14T07:40:27;28.4;28.4
78731;SHT31;68055;51.978;5.658;2023-06-14T07:42:57;28.6;29.1
78731;SHT31;68055;51.978;5.658;2023-06-14T07:45:26;28.7;28.4
78731;SHT31;68055;51.978;5.658;2023-06-14T07:47:56;28.7;28.4
78731;SHT31;68055;51.978;5.658;2023-06-14T07:50:26;28.8;27.9
78731;SHT31;68055;51.978;5.658;2023-06-14T07:52:56;28.8;27.9
78731;SHT31;68055;51.978;5.658;2023-06-14T07:55:26;28.8;27.2
78731;SHT31;68055;51.978;5.658;2023-06-14T07:57:56;28.8;27.2
78731;SHT31;68055;51.978;5.658;2023-06-14T08:00:25;28.8;27.3
78731;SHT31;68055;51.978;5.658;2023-06-14T08:02:55;28.8;27.2
78731;SHT31;68055;51.978;5.658;2023-06-14T08:05:27;28.8;27.6
78731;SHT31;68055;51.978;5.658;2023-06-14T08:07:56;28.8;27.8
78731;SHT31;68055;51.978;5.658;2023-06-14T08:10:26;28.9;27.5
78731;SHT31;68055;51.978;5.658;2023-06-14T08:12:55;28.9;27.5
78731;SHT31;68055;51.978;5.658;2023-06-14T08:15:27;28.9;27.5
78731;SHT31;68055;51.978;5.658;2023-06-14T08:17:57;29.0;27.5
78731;SHT31;68055;51.978;5.658;2023-06-14T08:20:27;29.1;27.7
78731;SHT31;68055;51.978;5.658;2023-06-14T08:22:58;29.1;27.6
78731;SHT31;68055;51.978;5.658;2023-06-14T08:25:29;29.2;27.5
78731;SHT31;68055;51.978;5.658;2023-06-14T08:27:58;29.3;26.9
78731;SHT31;68055;51.978;5.658;2023-06-14T08:30:28;29.4;26.4
78731;SHT31;68055;51.978;5.658;2023-06-14T08:32:57;29.5;26.1
78731;SHT31;68055;51.978;5.658;2023-06-14T08:35:27;29.5;25.7
78731;SHT31;68055;51.978;5.658;2023-06-14T08:37:57;29.6;26.1
78731;SHT31;68055;51.978;5.658;2023-06-14T08:40:27;29.7;26.5
78731;SHT31;68055;51.978;5.658;2023-06-14T08:42:57;29.9;26.3
78731;SHT31;68055;51.978;5.658;2023-06-14T08:45:27;30.0;26.2
78731;SHT31;68055;51.978;5.658;2023-06-14T08:47:59;30.2;25.4
78731;SHT31;68055;51.978;5.658;2023-06-14T08:50:30;30.4;25.5
78731;SHT31;68055;51.978;5.658;2023-06-14T08:53:02;30.5;25.0
78731;SHT31;68055;51.978;5.658;2023-06-14T08:55:32;30.6;24.8
78731;SHT31;68055;51.978;5.658;2023-06-14T08:58:05;30.7;23.4
78731;SHT31;68055;51.978;5.658;2023-06-14T09:00:36;30.8;24.1
78731;SHT31;68055;51.978;5.658;2023-06-14T09:03:09;30.8;23.6
78731;SHT31;68055;51.978;5.658;2023-06-14T09:05:41;30.9;23.8
78731;SHT31;68055;51.978;5.658;2023-06-14T09:08:11;30.9;23.8
78731;SHT31;68055;51.978;5.658;2023-06-14T09:10:41;31.0;23.6
78731;SHT31;68055;51.978;5.658;2023-06-14T09:13:12;31.1;23.6
78731;SHT31;68055;51.978;5.658;2023-06-14T09:15:41;31.2;23.6
78731;SHT31;68055;51.978;5.658;2023-06-14T09:18:11;31.3;23.3
78731;SHT31;68055;51.978;5.658;2023-06-14T09:20:41;31.3;23.5
78731;SHT31;68055;51.978;5.658;2023-06-14T09:23:10;31.4;22.7
78731;SHT31;68055;51.978;5.658;2023-06-14T09:25:45;31.5;22.2
78731;SHT31;68055;51.978;5.658;2023-06-14T09:28:15;31.6;21.5
78731;SHT31;68055;51.978;5.658;2023-06-14T09:30:44;31.6;22.0
78731;SHT31;68055;51.978;5.658;2023-06-14T09:33:18;31.7;22.3
78731;SHT31;68055;51.978;5.658;2023-06-14T09:35:50;31.8;22.9
78731;SHT31;68055;51.978;5.658;2023-06-14T09:38:20;31.8;22.8
78731;SHT31;68055;51.978;5.658;2023-06-14T09:40:53;31.9;22.3
78731;SHT31;68055;51.978;5.658;2023-06-14T09:43:25;32.0;22.1
78731;SHT31;68055;51.978;5.658;2023-06-14T09:45:56;32.1;21.4
78731;SHT31;68055;51.978;5.658;2023-06-14T09:48:26;32.2;21.5
78731;SHT31;68055;51.978;5.658;2023-06-14T09:50:58;32.3;22.0
78731;SHT31;68055;51.978;5.658;2023-06-14T09:53:33;32.3;21.6
78731;SHT31;68055;51.978;5.658;2023-06-14T09:56:05;32.4;21.4
78731;SHT31;68055;51.978;5.658;2023-06-14T09:58:39;32.5;21.9
78731;SHT31;68055;51.978;5.658;2023-06-14T10:01:10;32.6;21.2
78731;SHT31;68055;51.978;5.658;2023-06-14T10:03:42;32.7;21.5
78731;SHT31;68055;51.978;5.658;2023-06-14T10:06:14;32.8;21.6
78731;SHT31;68055;51.978;5.658;2023-06-14T10:08:45;32.9;22.5
78731;SHT31;68055;51.978;5.658;2023-06-14T10:11:15;33.0;22.0
78731;SHT31;68055;51.978;5.658;2023-06-14T10:13:47;33.1;22.3
78731;SHT31;68055;51.978;5.658;2023-06-14T10:16:22;33.3;22.2
78731;SHT31;68055;51.978;5.658;2023-06-14T10:19:03;33.5;21.9
78731;SHT31;68055;51.978;5.658;2023-06-14T10:21:43;33.6;21.3
78731;SHT31;68055;51.978;5.658;2023-06-14T10:24:18;33.8;20.7
78731;SHT31;68055;51.978;5.658;2023-06-14T10:26:57;33.9;21.3
78731;SHT31;68055;51.978;5.658;2023-06-14T10:29:27;34.0;20.9
78731;SHT31;68055;51.978;5.658;2023-06-14T10:32:00;34.1;20.7
78731;SHT31;68055;51.978;5.658;2023-06-14T10:34:32;34.2;20.6
78731;SHT31;68055;51.978;5.658;2023-06-14T10:37:07;34.2;20.7
78731;SHT31;68055;51.978;5.658;2023-06-14T10:39:41;34.3;20.6
78731;SHT31;68055;51.978;5.658;2023-06-14T10:42:12;34.4;20.5
78731;SHT31;68055;51.978;5.658;2023-06-14T10:44:44;34.5;20.7
78731;SHT31;68055;51.978;5.658;2023-06-14T10:47:24;34.6;20.4
78731;SHT31;68055;51.978;5.658;2023-06-14T10:49:56;34.7;20.1
78731;SHT31;68055;51.978;5.658;2023-06-14T10:52:29;34.7;20.3
78731;SHT31;68055;51.978;5.658;2023-06-14T10:55:04;34.7;20.7
78731;SHT31;68055;51.978;5.658;2023-06-14T10:57:37;34.8;20.0
78731;SHT31;68055;51.978;5.658;2023-06-14T11:00:09;34.8;20.5
78731;SHT31;68055;51.978;5.658;2023-06-14T11:05:55;34.9;20.3
78731;SHT31;68055;51.978;5.658;2023-06-14T11:12:15;35.1;19.3
78731;SHT31;68055;51.978;5.658;2023-06-14T11:14:48;35.1;18.9
78731;SHT31;68055;51.978;5.658;2023-06-14T11:17:18;35.2;19.3
78731;SHT31;68055;51.978;5.658;2023-06-14T11:19:49;35.2;19.3
78731;SHT31;68055;51.978;5.658;2023-06-14T11:22:19;35.3;19.2
78731;SHT31;68055;51.978;5.658;2023-06-14T11:24:48;35.3;18.8
78731;SHT31;68055;51.978;5.658;2023-06-14T11:27:18;35.4;19.3
78731;SHT31;68055;51.978;5.658;2023-06-14T11:29:52;35.5;18.6
78731;SHT31;68055;51.978;5.658;2023-06-14T11:32:22;35.6;18.5
78731;SHT31;68055;51.978;5.658;2023-06-14T11:34:52;35.6;18.1
78731;SHT31;68055;51.978;5.658;2023-06-14T11:37:22;35.6;18.3
78731;SHT31;68055;51.978;5.658;2023-06-14T11:39:56;35.6;18.4
78731;SHT31;68055;51.978;5.658;2023-06-14T11:42:27;35.5;18.6
78731;SHT31;68055;51.978;5.658;2023-06-14T11:44:57;35.3;21.1
78731;SHT31;68055;51.978;5.658;2023-06-14T11:47:31;35.0;20.0
78731;SHT31;68055;51.978;5.658;2023-06-14T11:50:02;34.7;21.1
78731;SHT31;68055;51.978;5.658;2023-06-14T11:52:33;34.3;20.8
78731;SHT31;68055;51.978;5.658;2023-06-14T11:55:03;34.0;21.1
78731;SHT31;68055;51.978;5.658;2023-06-14T11:57:36;33.7;21.1
78731;SHT31;68055;51.978;5.658;2023-06-14T12:00:07;33.4;21.1
78731;SHT31;68055;51.978;5.658;2023-06-14T12:02:39;33.1;22.2
78731;SHT31;68055;51.978;5.658;2023-06-14T12:05:10;32.8;22.4
78731;SHT31;68055;51.978;5.658;2023-06-14T12:07:39;32.6;22.4
78731;SHT31;68055;51.978;5.658;2023-06-14T12:10:09;32.4;22.0
78731;SHT31;68055;51.978;5.658;2023-06-14T12:12:40;32.2;21.7
78731;SHT31;68055;51.978;5.658;2023-06-14T12:15:10;32.0;22.3
78731;SHT31;68055;51.978;5.658;2023-06-14T12:17:44;31.8;23.3
78731;SHT31;68055;51.978;5.658;2023-06-14T12:20:14;31.6;23.9
78731;SHT31;68055;51.978;5.658;2023-06-14T12:22:52;31.5;24.2
78731;SHT31;68055;51.978;5.658;2023-06-14T12:25:30;31.4;24.1
78731;SHT31;68055;51.978;5.658;2023-06-14T12:28:04;31.3;23.6
78731;SHT31;68055;51.978;5.658;2023-06-14T12:30:36;31.2;24.2
78731;SHT31;68055;51.978;5.658;2023-06-14T12:33:06;31.1;24.4
78731;SHT31;68055;51.978;5.658;2023-06-14T12:35:35;31.0;24.1
78731;SHT31;68055;51.978;5.658;2023-06-14T12:38:04;31.0;24.6
78731;SHT31;68055;51.978;5.658;2023-06-14T12:40:34;30.9;24.6
78731;SHT31;68055;51.978;5.658;2023-06-14T12:43:05;30.8;24.2
78731;SHT31;68055;51.978;5.658;2023-06-14T12:45:34;30.7;23.8
78731;SHT31;68055;51.978;5.658;2023-06-14T12:48:04;30.6;23.8
78731;SHT31;68055;51.978;5.658;2023-06-14T12:50:36;30.5;23.8
78731;SHT31;68055;51.978;5.658;2023-06-14T12:53:05;30.4;23.8
78731;SHT31;68055;51.978;5.658;2023-06-14T12:55:35;30.3;24.1
78731;SHT31;68055;51.978;5.658;2023-06-14T12:58:04;30.2;24.5
78731;SHT31;68055;51.978;5.658;2023-06-14T13:00:35;30.2;24.5
78731;SHT31;68055;51.978;5.658;2023-06-14T13:03:04;30.1;23.3
78731;SHT31;68055;51.978;5.658;2023-06-14T13:05:34;30.1;23.8
78731;SHT31;68055;51.978;5.658;2023-06-14T13:08:04;30.0;24.6
78731;SHT31;68055;51.978;5.658;2023-06-14T13:10:36;30.0;24.6
78731;SHT31;68055;51.978;5.658;2023-06-14T13:13:05;29.9;24.6
78731;SHT31;68055;51.978;5.658;2023-06-14T13:15:39;29.8;24.4
78731;SHT31;68055;51.978;5.658;2023-06-14T13:18:09;29.8;24.1
78731;SHT31;68055;51.978;5.658;2023-06-14T13:20:40;29.7;24.7
78731;SHT31;68055;51.978;5.658;2023-06-14T13:23:10;29.7;25.5
78731;SHT31;68055;51.978;5.658;2023-06-14T13:25:40;29.6;25.3
78731;SHT31;68055;51.978;5.658;2023-06-14T13:28:09;29.6;25.9
78731;SHT31;68055;51.978;5.658;2023-06-14T13:30:39;29.5;25.8
78731;SHT31;68055;51.978;5.658;2023-06-14T13:33:08;29.5;25.8
78731;SHT31;68055;51.978;5.658;2023-06-14T13:35:40;29.5;25.5
78731;SHT31;68055;51.978;5.658;2023-06-14T13:38:10;29.4;25.9
78731;SHT31;68055;51.978;5.658;2023-06-14T13:40:40;29.4;25.6
78731;SHT31;68055;51.978;5.658;2023-06-14T13:43:10;29.4;25.9
78731;SHT31;68055;51.978;5.658;2023-06-14T13:45:39;29.4;25.6
78731;SHT31;68055;51.978;5.658;2023-06-14T13:48:09;29.3;26.1
78731;SHT31;68055;51.978;5.658;2023-06-14T13:50:39;29.3;26.5
78731;SHT31;68055;51.978;5.658;2023-06-14T13:53:08;29.3;26.0
78731;SHT31;68055;51.978;5.658;2023-06-14T13:55:38;29.3;26.1
78731;SHT31;68055;51.978;5.658;2023-06-14T13:58:07;29.3;25.4
78731;SHT31;68055;51.978;5.658;2023-06-14T14:00:37;29.3;24.9
78731;SHT31;68055;51.978;5.658;2023-06-14T14:03:07;29.3;25.1
78731;SHT31;68055;51.978;5.658;2023-06-14T14:05:40;29.3;25.9
78731;SHT31;68055;51.978;5.658;2023-06-14T14:08:10;29.3;25.2
78731;SHT31;68055;51.978;5.658;2023-06-14T14:10:40;29.2;25.2
78731;SHT31;68055;51.978;5.658;2023-06-14T14:13:09;29.2;25.5
78731;SHT31;68055;51.978;5.658;2023-06-14T14:15:41;29.2;25.4
78731;SHT31;68055;51.978;5.658;2023-06-14T14:18:11;29.2;25.4
78731;SHT31;68055;51.978;5.658;2023-06-14T14:20:43;29.2;25.4
78731;SHT31;68055;51.978;5.658;2023-06-14T14:23:13;29.1;25.8
78731;SHT31;68055;51.978;5.658;2023-06-14T14:25:42;29.1;24.9
78731;SHT31;68055;51.978;5.658;2023-06-14T14:28:12;29.1;25.0
78731;SHT31;68055;51.978;5.658;2023-06-14T14:30:43;29.1;25.0
78731;SHT31;68055;51.978;5.658;2023-06-14T14:33:15;29.1;25.8
78731;SHT31;68055;51.978;5.658;2023-06-14T14:35:45;29.0;26.2
78731;SHT31;68055;51.978;5.658;2023-06-14T14:38:15;29.0;25.9
78731;SHT31;68055;51.978;5.658;2023-06-14T14:40:45;29.0;25.6
78731;SHT31;68055;51.978;5.658;2023-06-14T14:43:15;29.0;25.6
78731;SHT31;68055;51.978;5.658;2023-06-14T14:45:44;28.9;25.8
78731;SHT31;68055;51.978;5.658;2023-06-14T14:48:14;28.9;26.3
78731;SHT31;68055;51.978;5.658;2023-06-14T14:50:43;28.9;25.8
78731;SHT31;68055;51.978;5.658;2023-06-14T14:53:13;28.9;26.0
78731;SHT31;68055;51.978;5.658;2023-06-14T14:55:44;28.9;26.1
78731;SHT31;68055;51.978;5.658;2023-06-14T14:58:14;28.9;26.1
78731;SHT31;68055;51.978;5.658;2023-06-14T15:00:46;28.8;26.2
78731;SHT31;68055;51.978;5.658;2023-06-14T15:03:16;28.8;25.9
78731;SHT31;68055;51.978;5.658;2023-06-14T15:05:47;28.8;26.2
78731;SHT31;68055;51.978;5.658;2023-06-14T15:08:17;28.8;26.0
78731;SHT31;68055;51.978;5.658;2023-06-14T15:10:46;28.7;25.5
78731;SHT31;68055;51.978;5.658;2023-06-14T15:13:16;28.7;25.7
78731;SHT31;68055;51.978;5.658;2023-06-14T15:15:48;28.7;24.9
78731;SHT31;68055;51.978;5.658;2023-06-14T15:18:18;28.7;24.6
78731;SHT31;68055;51.978;5.658;2023-06-14T15:20:48;28.7;24.8
78731;SHT31;68055;51.978;5.658;2023-06-14T15:23:19;28.7;24.8
78731;SHT31;68055;51.978;5.658;2023-06-14T15:25:51;28.6;24.9
78731;SHT31;68055;51.978;5.658;2023-06-14T15:28:21;28.6;24.9
78731;SHT31;68055;51.978;5.658;2023-06-14T15:30:51;28.6;25.4
78731;SHT31;68055;51.978;5.658;2023-06-14T15:33:23;28.6;25.7
78731;SHT31;68055;51.978;5.658;2023-06-14T15:35:54;28.6;26.2
78731;SHT31;68055;51.978;5.658;2023-06-14T15:38:24;28.6;26.4
78731;SHT31;68055;51.978;5.658;2023-06-14T15:40:54;28.6;26.0
78731;SHT31;68055;51.978;5.658;2023-06-14T15:43:24;28.6;25.6
78731;SHT31;68055;51.978;5.658;2023-06-14T15:45:55;28.5;26.1
78731;SHT31;68055;51.978;5.658;2023-06-14T15:48:25;28.5;25.8
78731;SHT31;68055;51.978;5.658;2023-06-14T15:50:54;28.5;26.2
78731;SHT31;68055;51.978;5.658;2023-06-14T15:53:26;28.5;26.4
78731;SHT31;68055;51.978;5.658;2023-06-14T15:55:55;28.5;26.4
78731;SHT31;68055;51.978;5.658;2023-06-14T15:58:24;28.5;26.1
78731;SHT31;68055;51.978;5.658;2023-06-14T16:00:54;28.5;26.4
78731;SHT31;68055;51.978;5.658;2023-06-14T16:03:26;28.5;26.1
78731;SHT31;68055;51.978;5.658;2023-06-14T16:05:56;28.5;26.0
78731;SHT31;68055;51.978;5.658;2023-06-14T16:08:25;28.4;26.8
78731;SHT31;68055;51.978;5.658;2023-06-14T16:10:57;28.4;27.2
78731;SHT31;68055;51.978;5.658;2023-06-14T16:13:26;28.4;27.0
78731;SHT31;68055;51.978;5.658;2023-06-14T16:15:56;28.4;27.0
78731;SHT31;68055;51.978;5.658;2023-06-14T16:18:28;28.4;27.3
78731;SHT31;68055;51.978;5.658;2023-06-14T16:20:58;28.4;27.4
78731;SHT31;68055;51.978;5.658;2023-06-14T16:23:29;28.4;27.4
78731;SHT31;68055;51.978;5.658;2023-06-14T16:25:59;28.4;27.3
78731;SHT31;68055;51.978;5.658;2023-06-14T16:28:29;28.4;27.4
78731;SHT31;68055;51.978;5.658;2023-06-14T16:31:02;28.4;26.9